sensor_id;sensor_type;location;lat;lon;timestamp;P1;durP1;ratioP1;P2;durP2;ratioP2
20056;SDS011;10189;49.546;7.906;2023-08-01T00:02:38;10.40;;;6.47;;
20056;SDS011;10189;49.546;7.906;2023-08-01T00:05:07;9.13;;;6.53;;
20056;SDS011;10189;49.546;7.906;2023-08-01T00:07:34;8.25;;;6.53;;
20056;SDS011;10189;49.546;7.906;2023-08-01T00:10:00;9.00;;;6.13;;
20056;SDS011;10189;49.546;7.906;2023-08-01T00:12:26;10.43;;;6.90;;
20056;SDS011;10189;49.546;7.906;2023-08-01T00:14:52;9.20;;;6.72;;
20056;SDS011;10189;49.546;7.906;2023-08-01T00:17:18;9.80;;;6.57;;
20056;SDS011;10189;49.546;7.906;2023-08-01T00:19:44;11.38;;;6.90;;
20056;SDS011;10189;49.546;7.906;2023-08-01T00:22:10;10.38;;;6.32;;
20056;SDS011;10189;49.546;7.906;2023-08-01T00:24:36;11.18;;;6.68;;
20056;SDS011;10189;49.546;7.906;2023-08-01T00:27:02;8.85;;;6.35;;
20056;SDS011;10189;49.546;7.906;2023-08-01T00:29:29;10.73;;;6.70;;
20056;SDS011;10189;49.546;7.906;2023-08-01T00:31:55;8.98;;;6.45;;
20056;SDS011;10189;49.546;7.906;2023-08-01T00:34:21;9.82;;;6.45;;
20056;SDS011;10189;49.546;7.906;2023-08-01T00:36:47;8.55;;;6.40;;
20056;SDS011;10189;49.546;7.906;2023-08-01T00:39:14;10.23;;;6.35;;
20056;SDS011;10189;49.546;7.906;2023-08-01T00:41:40;9.73;;;7.10;;
20056;SDS011;10189;49.546;7.906;2023-08-01T00:44:06;11.13;;;6.22;;
20056;SDS011;10189;49.546;7.906;2023-08-01T00:46:32;12.13;;;6.70;;
20056;SDS011;10189;49.546;7.906;2023-08-01T00:48:58;9.77;;;6.53;;
20056;SDS011;10189;49.546;7.906;2023-08-01T00:51:25;9.25;;;6.90;;
20056;SDS011;10189;49.546;7.906;2023-08-01T00:53:53;8.63;;;6.38;;
20056;SDS011;10189;49.546;7.906;2023-08-01T00:56:19;9.95;;;6.00;;
20056;SDS011;10189;49.546;7.906;2023-08-01T00:58:45;8.88;;;6.80;;
20056;SDS011;10189;49.546;7.906;2023-08-01T01:01:11;9.60;;;6.43;;
20056;SDS011;10189;49.546;7.906;2023-08-01T01:03:36;11.40;;;6.63;;
20056;SDS011;10189;49.546;7.906;2023-08-01T01:06:12;9.48;;;6.50;;
20056;SDS011;10189;49.546;7.906;2023-08-01T01:08:48;9.30;;;6.63;;
20056;SDS011;10189;49.546;7.906;2023-08-01T01:11:14;11.52;;;6.68;;
20056;SDS011;10189;49.546;7.906;2023-08-01T01:13:40;10.63;;;6.82;;
20056;SDS011;10189;49.546;7.906;2023-08-01T01:16:06;9.13;;;6.63;;
20056;SDS011;10189;49.546;7.906;2023-08-01T01:18:32;9.95;;;6.57;;
20056;SDS011;10189;49.546;7.906;2023-08-01T01:20:59;11.55;;;6.25;;
20056;SDS011;10189;49.546;7.906;2023-08-01T01:23:25;11.35;;;7.10;;
20056;SDS011;10189;49.546;7.906;2023-08-01T01:25:52;9.75;;;6.72;;
20056;SDS011;10189;49.546;7.906;2023-08-01T01:28:21;8.93;;;6.55;;
20056;SDS011;10189;49.546;7.906;2023-08-01T01:30:48;13.60;;;6.75;;
20056;SDS011;10189;49.546;7.906;2023-08-01T01:33:14;9.23;;;6.47;;
20056;SDS011;10189;49.546;7.906;2023-08-01T01:35:41;13.80;;;6.95;;
20056;SDS011;10189;49.546;7.906;2023-08-01T01:38:07;13.45;;;6.65;;
20056;SDS011;10189;49.546;7.906;2023-08-01T01:40:34;8.52;;;6.47;;
20056;SDS011;10189;49.546;7.906;2023-08-01T01:43:00;9.98;;;6.00;;
20056;SDS011;10189;49.546;7.906;2023-08-01T01:45:26;11.70;;;6.00;;
20056;SDS011;10189;49.546;7.906;2023-08-01T01:47:52;12.30;;;6.45;;
20056;SDS011;10189;49.546;7.906;2023-08-01T01:50:19;8.93;;;6.15;;
20056;SDS011;10189;49.546;7.906;2023-08-01T01:52:45;8.82;;;5.85;;
20056;SDS011;10189;49.546;7.906;2023-08-01T01:55:11;10.75;;;6.50;;
20056;SDS011;10189;49.546;7.906;2023-08-01T01:57:38;10.13;;;6.25;;
20056;SDS011;10189;49.546;7.906;2023-08-01T02:00:05;11.25;;;6.40;;
20056;SDS011;10189;49.546;7.906;2023-08-01T02:02:44;8.80;;;5.85;;
20056;SDS011;10189;49.546;7.906;2023-08-01T02:05:09;10.32;;;6.60;;
20056;SDS011;10189;49.546;7.906;2023-08-01T02:07:35;8.63;;;5.88;;
20056;SDS011;10189;49.546;7.906;2023-08-01T02:10:01;9.27;;;6.72;;
20056;SDS011;10189;49.546;7.906;2023-08-01T02:12:31;9.90;;;6.88;;
20056;SDS011;10189;49.546;7.906;2023-08-01T02:14:57;10.77;;;6.15;;
20056;SDS011;10189;49.546;7.906;2023-08-01T02:17:23;9.27;;;6.18;;
20056;SDS011;10189;49.546;7.906;2023-08-01T02:19:50;8.35;;;6.50;;
20056;SDS011;10189;49.546;7.906;2023-08-01T02:22:15;12.02;;;7.00;;
20056;SDS011;10189;49.546;7.906;2023-08-01T02:24:41;11.52;;;6.90;;
20056;SDS011;10189;49.546;7.906;2023-08-01T02:27:07;9.10;;;6.85;;
20056;SDS011;10189;49.546;7.906;2023-08-01T02:29:34;10.75;;;7.05;;
20056;SDS011;10189;49.546;7.906;2023-08-01T02:31:59;10.48;;;7.13;;
20056;SDS011;10189;49.546;7.906;2023-08-01T02:34:25;10.93;;;7.03;;
20056;SDS011;10189;49.546;7.906;2023-08-01T02:36:51;10.88;;;7.35;;
20056;SDS011;10189;49.546;7.906;2023-08-01T02:39:18;9.55;;;6.82;;
20056;SDS011;10189;49.546;7.906;2023-08-01T02:41:44;12.13;;;6.70;;
20056;SDS011;10189;49.546;7.906;2023-08-01T02:44:10;10.00;;;6.75;;
20056;SDS011;10189;49.546;7.906;2023-08-01T02:46:36;11.15;;;7.35;;
20056;SDS011;10189;49.546;7.906;2023-08-01T02:49:01;11.40;;;7.50;;
20056;SDS011;10189;49.546;7.906;2023-08-01T02:51:28;11.00;;;7.53;;
20056;SDS011;10189;49.546;7.906;2023-08-01T02:53:53;10.88;;;7.43;;
20056;SDS011;10189;49.546;7.906;2023-08-01T02:56:19;11.30;;;7.15;;
20056;SDS011;10189;49.546;7.906;2023-08-01T02:58:45;12.65;;;7.00;;
20056;SDS011;10189;49.546;7.906;2023-08-01T03:01:11;11.48;;;7.05;;
20056;SDS011;10189;49.546;7.906;2023-08-01T03:03:38;9.95;;;6.78;;
20056;SDS011;10189;49.546;7.906;2023-08-01T03:06:04;10.13;;;6.53;;
20056;SDS011;10189;49.546;7.906;2023-08-01T03:08:30;9.25;;;6.70;;
20056;SDS011;10189;49.546;7.906;2023-08-01T03:10:56;8.57;;;6.10;;
20056;SDS011;10189;49.546;7.906;2023-08-01T03:13:23;9.48;;;6.05;;
20056;SDS011;10189;49.546;7.906;2023-08-01T03:15:49;10.63;;;6.43;;
20056;SDS011;10189;49.546;7.906;2023-08-01T03:18:14;9.98;;;5.97;;
20056;SDS011;10189;49.546;7.906;2023-08-01T03:20:40;10.77;;;6.28;;
20056;SDS011;10189;49.546;7.906;2023-08-01T03:23:06;9.77;;;6.70;;
20056;SDS011;10189;49.546;7.906;2023-08-01T03:25:32;10.55;;;6.97;;
20056;SDS011;10189;49.546;7.906;2023-08-01T03:27:58;14.07;;;7.07;;
20056;SDS011;10189;49.546;7.906;2023-08-01T03:30:24;11.20;;;6.75;;
20056;SDS011;10189;49.546;7.906;2023-08-01T03:32:51;10.95;;;7.53;;
20056;SDS011;10189;49.546;7.906;2023-08-01T03:35:17;9.63;;;6.90;;
20056;SDS011;10189;49.546;7.906;2023-08-01T03:37:43;12.95;;;7.18;;
20056;SDS011;10189;49.546;7.906;2023-08-01T03:40:09;11.05;;;6.10;;
20056;SDS011;10189;49.546;7.906;2023-08-01T03:42:36;9.63;;;6.03;;
20056;SDS011;10189;49.546;7.906;2023-08-01T03:45:02;9.45;;;6.30;;
20056;SDS011;10189;49.546;7.906;2023-08-01T03:47:30;9.18;;;6.57;;
20056;SDS011;10189;49.546;7.906;2023-08-01T03:49:57;9.57;;;6.18;;
20056;SDS011;10189;49.546;7.906;2023-08-01T03:52:23;8.02;;;5.70;;
20056;SDS011;10189;49.546;7.906;2023-08-01T03:54:52;9.82;;;6.15;;
20056;SDS011;10189;49.546;7.906;2023-08-01T03:57:19;11.67;;;5.90;;
20056;SDS011;10189;49.546;7.906;2023-08-01T03:59:46;8.52;;;5.57;;
20056;SDS011;10189;49.546;7.906;2023-08-01T04:02:12;8.18;;;5.60;;
20056;SDS011;10189;49.546;7.906;2023-08-01T04:04:38;7.72;;;5.53;;
20056;SDS011;10189;49.546;7.906;2023-08-01T04:07:03;8.55;;;5.70;;
20056;SDS011;10189;49.546;7.906;2023-08-01T04:09:30;8.05;;;5.00;;
20056;SDS011;10189;49.546;7.906;2023-08-01T04:11:55;7.38;;;4.85;;
20056;SDS011;10189;49.546;7.906;2023-08-01T04:14:21;7.53;;;4.82;;
20056;SDS011;10189;49.546;7.906;2023-08-01T04:16:47;6.88;;;4.78;;
20056;SDS011;10189;49.546;7.906;2023-08-01T04:19:13;6.95;;;5.32;;
20056;SDS011;10189;49.546;7.906;2023-08-01T04:21:39;6.00;;;4.95;;
20056;SDS011;10189;49.546;7.906;2023-08-01T04:24:05;7.97;;;5.50;;
20056;SDS011;10189;49.546;7.906;2023-08-01T04:26:31;8.45;;;5.88;;
20056;SDS011;10189;49.546;7.906;2023-08-01T04:28:57;7.80;;;5.63;;
20056;SDS011;10189;49.546;7.906;2023-08-01T04:31:22;7.88;;;6.20;;
20056;SDS011;10189;49.546;7.906;2023-08-01T04:33:48;8.18;;;6.00;;
20056;SDS011;10189;49.546;7.906;2023-08-01T04:36:14;9.70;;;6.57;;
20056;SDS011;10189;49.546;7.906;2023-08-01T04:38:41;8.40;;;6.20;;
20056;SDS011;10189;49.546;7.906;2023-08-01T04:41:07;9.40;;;6.28;;
20056;SDS011;10189;49.546;7.906;2023-08-01T04:43:33;8.55;;;6.18;;
20056;SDS011;10189;49.546;7.906;2023-08-01T04:45:59;10.52;;;6.40;;
20056;SDS011;10189;49.546;7.906;2023-08-01T04:48:24;9.15;;;6.38;;
20056;SDS011;10189;49.546;7.906;2023-08-01T04:50:50;9.32;;;6.90;;
20056;SDS011;10189;49.546;7.906;2023-08-01T04:53:16;8.25;;;6.53;;
20056;SDS011;10189;49.546;7.906;2023-08-01T04:55:42;9.57;;;6.90;;
20056;SDS011;10189;49.546;7.906;2023-08-01T04:58:08;10.07;;;6.90;;
20056;SDS011;10189;49.546;7.906;2023-08-01T05:00:33;8.20;;;6.53;;
20056;SDS011;10189;49.546;7.906;2023-08-01T05:02:59;11.35;;;6.35;;
20056;SDS011;10189;49.546;7.906;2023-08-01T05:05:26;8.73;;;6.35;;
20056;SDS011;10189;49.546;7.906;2023-08-01T05:07:51;8.43;;;6.30;;
20056;SDS011;10189;49.546;7.906;2023-08-01T05:10:17;10.13;;;6.78;;
20056;SDS011;10189;49.546;7.906;2023-08-01T05:12:43;9.82;;;6.63;;
20056;SDS011;10189;49.546;7.906;2023-08-01T05:15:09;8.45;;;6.20;;
20056;SDS011;10189;49.546;7.906;2023-08-01T05:17:35;8.45;;;6.05;;
20056;SDS011;10189;49.546;7.906;2023-08-01T05:20:01;8.50;;;6.65;;
20056;SDS011;10189;49.546;7.906;2023-08-01T05:22:29;9.88;;;6.40;;
20056;SDS011;10189;49.546;7.906;2023-08-01T05:24:55;11.35;;;6.10;;
20056;SDS011;10189;49.546;7.906;2023-08-01T05:27:21;7.30;;;6.20;;
20056;SDS011;10189;49.546;7.906;2023-08-01T05:29:47;6.45;;;5.30;;
20056;SDS011;10189;49.546;7.906;2023-08-01T05:32:12;6.70;;;5.20;;
20056;SDS011;10189;49.546;7.906;2023-08-01T05:34:38;6.50;;;4.63;;
20056;SDS011;10189;49.546;7.906;2023-08-01T05:37:04;6.40;;;4.72;;
20056;SDS011;10189;49.546;7.906;2023-08-01T05:39:30;6.00;;;4.20;;
20056;SDS011;10189;49.546;7.906;2023-08-01T05:41:56;5.85;;;3.83;;
20056;SDS011;10189;49.546;7.906;2023-08-01T05:44:22;5.38;;;4.43;;
20056;SDS011;10189;49.546;7.906;2023-08-01T05:46:48;4.95;;;4.05;;
20056;SDS011;10189;49.546;7.906;2023-08-01T05:49:14;5.32;;;4.00;;
20056;SDS011;10189;49.546;7.906;2023-08-01T05:51:40;4.95;;;3.70;;
20056;SDS011;10189;49.546;7.906;2023-08-01T05:54:05;5.07;;;3.42;;
20056;SDS011;10189;49.546;7.906;2023-08-01T05:56:31;5.47;;;3.50;;
20056;SDS011;10189;49.546;7.906;2023-08-01T05:58:57;5.03;;;3.80;;
20056;SDS011;10189;49.546;7.906;2023-08-01T06:01:23;4.05;;;3.40;;
20056;SDS011;10189;49.546;7.906;2023-08-01T06:03:49;5.88;;;3.00;;
20056;SDS011;10189;49.546;7.906;2023-08-01T06:06:15;3.60;;;3.13;;
20056;SDS011;10189;49.546;7.906;2023-08-01T06:08:41;4.05;;;2.72;;
20056;SDS011;10189;49.546;7.906;2023-08-01T06:11:08;3.22;;;2.85;;
20056;SDS011;10189;49.546;7.906;2023-08-01T06:13:34;4.63;;;2.80;;
20056;SDS011;10189;49.546;7.906;2023-08-01T06:16:00;3.03;;;2.60;;
20056;SDS011;10189;49.546;7.906;2023-08-01T06:18:26;2.97;;;2.22;;
20056;SDS011;10189;49.546;7.906;2023-08-01T06:20:52;3.10;;;2.40;;
20056;SDS011;10189;49.546;7.906;2023-08-01T06:23:18;2.45;;;2.22;;
20056;SDS011;10189;49.546;7.906;2023-08-01T06:25:43;3.30;;;2.33;;
20056;SDS011;10189;49.546;7.906;2023-08-01T06:28:09;4.03;;;1.98;;
20056;SDS011;10189;49.546;7.906;2023-08-01T06:30:35;3.22;;;2.10;;
20056;SDS011;10189;49.546;7.906;2023-08-01T06:33:01;2.10;;;1.80;;
20056;SDS011;10189;49.546;7.906;2023-08-01T06:35:27;2.00;;;1.65;;
20056;SDS011;10189;49.546;7.906;2023-08-01T06:37:52;3.47;;;1.58;;
20056;SDS011;10189;49.546;7.906;2023-08-01T06:40:18;3.90;;;1.67;;
20056;SDS011;10189;49.546;7.906;2023-08-01T06:42:44;3.03;;;1.33;;
20056;SDS011;10189;49.546;7.906;2023-08-01T06:45:10;2.08;;;1.27;;
20056;SDS011;10189;49.546;7.906;2023-08-01T06:47:36;1.60;;;1.00;;
20056;SDS011;10189;49.546;7.906;2023-08-01T06:50:02;0.90;;;0.80;;
20056;SDS011;10189;49.546;7.906;2023-08-01T06:52:28;1.25;;;1.00;;
20056;SDS011;10189;49.546;7.906;2023-08-01T06:54:53;1.80;;;0.90;;
20056;SDS011;10189;49.546;7.906;2023-08-01T06:57:19;2.15;;;1.02;;
20056;SDS011;10189;49.546;7.906;2023-08-01T06:59:45;1.48;;;0.82;;
20056;SDS011;10189;49.546;7.906;2023-08-01T07:02:11;1.83;;;1.00;;
20056;SDS011;10189;49.546;7.906;2023-08-01T07:04:37;2.58;;;0.90;;
20056;SDS011;10189;49.546;7.906;2023-08-01T07:07:03;1.55;;;1.10;;
20056;SDS011;10189;49.546;7.906;2023-08-01T07:09:29;1.02;;;0.90;;
20056;SDS011;10189;49.546;7.906;2023-08-01T07:11:55;0.98;;;0.85;;
20056;SDS011;10189;49.546;7.906;2023-08-01T07:14:21;1.13;;;1.00;;
20056;SDS011;10189;49.546;7.906;2023-08-01T07:16:47;2.03;;;0.82;;
20056;SDS011;10189;49.546;7.906;2023-08-01T07:19:13;2.17;;;0.80;;
20056;SDS011;10189;49.546;7.906;2023-08-01T07:21:39;0.88;;;0.70;;
20056;SDS011;10189;49.546;7.906;2023-08-01T07:24:05;0.98;;;0.77;;
20056;SDS011;10189;49.546;7.906;2023-08-01T07:26:31;1.50;;;0.93;;
20056;SDS011;10189;49.546;7.906;2023-08-01T07:28:57;1.80;;;1.10;;
20056;SDS011;10189;49.546;7.906;2023-08-01T07:31:22;1.83;;;1.00;;
20056;SDS011;10189;49.546;7.906;2023-08-01T07:33:48;1.83;;;1.10;;
20056;SDS011;10189;49.546;7.906;2023-08-01T07:36:14;1.30;;;1.08;;
20056;SDS011;10189;49.546;7.906;2023-08-01T07:38:40;1.20;;;1.10;;
20056;SDS011;10189;49.546;7.906;2023-08-01T07:41:06;1.60;;;1.20;;
20056;SDS011;10189;49.546;7.906;2023-08-01T07:43:32;1.73;;;1.30;;
20056;SDS011;10189;49.546;7.906;2023-08-01T07:45:58;1.63;;;1.30;;
20056;SDS011;10189;49.546;7.906;2023-08-01T07:48:25;2.25;;;1.30;;
20056;SDS011;10189;49.546;7.906;2023-08-01T07:50:51;1.38;;;1.05;;
20056;SDS011;10189;49.546;7.906;2023-08-01T07:53:17;1.92;;;0.90;;
20056;SDS011;10189;49.546;7.906;2023-08-01T07:55:43;1.30;;;0.90;;
20056;SDS011;10189;49.546;7.906;2023-08-01T07:58:09;1.10;;;0.80;;
20056;SDS011;10189;49.546;7.906;2023-08-01T08:00:35;1.50;;;0.90;;
20056;SDS011;10189;49.546;7.906;2023-08-01T08:03:01;0.70;;;0.70;;
20056;SDS011;10189;49.546;7.906;2023-08-01T08:05:27;1.85;;;0.90;;
20056;SDS011;10189;49.546;7.906;2023-08-01T08:07:52;1.58;;;0.90;;
20056;SDS011;10189;49.546;7.906;2023-08-01T08:10:18;1.15;;;0.77;;
20056;SDS011;10189;49.546;7.906;2023-08-01T08:12:44;2.10;;;1.15;;
20056;SDS011;10189;49.546;7.906;2023-08-01T08:15:10;0.93;;;0.80;;
20056;SDS011;10189;49.546;7.906;2023-08-01T08:17:38;1.20;;;0.80;;
20056;SDS011;10189;49.546;7.906;2023-08-01T08:20:04;0.98;;;0.90;;
20056;SDS011;10189;49.546;7.906;2023-08-01T08:22:31;2.13;;;0.80;;
20056;SDS011;10189;49.546;7.906;2023-08-01T08:24:57;1.02;;;0.63;;
20056;SDS011;10189;49.546;7.906;2023-08-01T08:27:23;1.50;;;0.90;;
20056;SDS011;10189;49.546;7.906;2023-08-01T08:29:49;1.10;;;0.73;;
20056;SDS011;10189;49.546;7.906;2023-08-01T08:32:15;1.02;;;0.70;;
20056;SDS011;10189;49.546;7.906;2023-08-01T08:34:41;1.45;;;0.90;;
20056;SDS011;10189;49.546;7.906;2023-08-01T08:37:07;1.10;;;0.80;;
20056;SDS011;10189;49.546;7.906;2023-08-01T08:39:33;2.10;;;0.73;;
20056;SDS011;10189;49.546;7.906;2023-08-01T08:41:59;1.63;;;0.88;;
20056;SDS011;10189;49.546;7.906;2023-08-01T08:44:25;2.10;;;0.70;;
20056;SDS011;10189;49.546;7.906;2023-08-01T08:46:55;1.63;;;1.00;;
20056;SDS011;10189;49.546;7.906;2023-08-01T08:49:29;2.55;;;1.02;;
20056;SDS011;10189;49.546;7.906;2023-08-01T08:51:57;1.23;;;0.95;;
20056;SDS011;10189;49.546;7.906;2023-08-01T08:54:24;2.17;;;0.80;;
20056;SDS011;10189;49.546;7.906;2023-08-01T08:56:51;1.27;;;0.90;;
20056;SDS011;10189;49.546;7.906;2023-08-01T08:59:19;2.60;;;1.27;;
20056;SDS011;10189;49.546;7.906;2023-08-01T09:01:46;2.10;;;1.00;;
20056;SDS011;10189;49.546;7.906;2023-08-01T09:04:12;3.65;;;1.40;;
20056;SDS011;10189;49.546;7.906;2023-08-01T09:06:45;2.13;;;1.13;;
20056;SDS011;10189;49.546;7.906;2023-08-01T09:09:14;1.50;;;1.30;;
20056;SDS011;10189;49.546;7.906;2023-08-01T09:11:44;2.97;;;1.30;;
20056;SDS011;10189;49.546;7.906;2023-08-01T09:14:13;1.77;;;1.30;;
20056;SDS011;10189;49.546;7.906;2023-08-01T09:16:40;2.85;;;1.48;;
20056;SDS011;10189;49.546;7.906;2023-08-01T09:19:07;2.50;;;1.30;;
20056;SDS011;10189;49.546;7.906;2023-08-01T09:21:35;2.75;;;1.48;;
20056;SDS011;10189;49.546;7.906;2023-08-01T09:24:09;3.20;;;1.45;;
20056;SDS011;10189;49.546;7.906;2023-08-01T09:26:40;1.80;;;1.52;;
20056;SDS011;10189;49.546;7.906;2023-08-01T09:29:07;2.85;;;1.40;;
20056;SDS011;10189;49.546;7.906;2023-08-01T09:31:35;2.00;;;1.30;;
20056;SDS011;10189;49.546;7.906;2023-08-01T09:34:17;1.40;;;1.30;;
20056;SDS011;10189;49.546;7.906;2023-08-01T09:36:45;1.95;;;1.20;;
20056;SDS011;10189;49.546;7.906;2023-08-01T09:39:18;3.78;;;1.50;;
20056;SDS011;10189;49.546;7.906;2023-08-01T09:41:46;1.67;;;1.40;;
20056;SDS011;10189;49.546;7.906;2023-08-01T09:44:25;4.00;;;1.42;;
20056;SDS011;10189;49.546;7.906;2023-08-01T09:47:00;2.95;;;1.23;;
20056;SDS011;10189;49.546;7.906;2023-08-01T09:49:32;2.83;;;1.33;;
20056;SDS011;10189;49.546;7.906;2023-08-01T09:51:59;2.90;;;1.30;;
20056;SDS011;10189;49.546;7.906;2023-08-01T09:54:26;1.80;;;1.20;;
20056;SDS011;10189;49.546;7.906;2023-08-01T09:56:53;1.50;;;1.38;;
20056;SDS011;10189;49.546;7.906;2023-08-01T09:59:22;1.73;;;1.30;;
20056;SDS011;10189;49.546;7.906;2023-08-01T10:01:53;2.00;;;1.30;;
20056;SDS011;10189;49.546;7.906;2023-08-01T10:04:24;2.80;;;1.60;;
20056;SDS011;10189;49.546;7.906;2023-08-01T10:06:57;3.20;;;1.77;;
20056;SDS011;10189;49.546;7.906;2023-08-01T10:09:25;3.28;;;1.65;;
20056;SDS011;10189;49.546;7.906;2023-08-01T10:11:52;3.90;;;1.30;;
20056;SDS011;10189;49.546;7.906;2023-08-01T10:14:22;3.05;;;1.70;;
20056;SDS011;10189;49.546;7.906;2023-08-01T10:16:50;1.95;;;1.40;;
20056;SDS011;10189;49.546;7.906;2023-08-01T10:19:17;2.72;;;1.20;;
20056;SDS011;10189;49.546;7.906;2023-08-01T10:21:44;2.05;;;1.45;;
20056;SDS011;10189;49.546;7.906;2023-08-01T10:24:13;1.80;;;1.30;;
20056;SDS011;10189;49.546;7.906;2023-08-01T10:26:40;1.80;;;1.30;;
20056;SDS011;10189;49.546;7.906;2023-08-01T10:29:09;1.70;;;1.25;;
20056;SDS011;10189;49.546;7.906;2023-08-01T10:31:35;2.88;;;1.40;;
20056;SDS011;10189;49.546;7.906;2023-08-01T10:34:05;2.72;;;1.30;;
20056;SDS011;10189;49.546;7.906;2023-08-01T10:36:37;2.42;;;1.33;;
20056;SDS011;10189;49.546;7.906;2023-08-01T10:39:03;1.77;;;1.20;;
20056;SDS011;10189;49.546;7.906;2023-08-01T10:41:33;1.92;;;1.17;;
20056;SDS011;10189;49.546;7.906;2023-08-01T10:46:45;2.38;;;1.40;;
20056;SDS011;10189;49.546;7.906;2023-08-01T10:49:20;2.45;;;1.30;;
20056;SDS011;10189;49.546;7.906;2023-08-01T10:52:03;2.75;;;1.42;;
20056;SDS011;10189;49.546;7.906;2023-08-01T10:54:45;2.38;;;1.30;;
20056;SDS011;10189;49.546;7.906;2023-08-01T10:57:15;2.42;;;1.50;;
20056;SDS011;10189;49.546;7.906;2023-08-01T10:59:42;3.30;;;1.80;;
20056;SDS011;10189;49.546;7.906;2023-08-01T11:02:09;3.25;;;1.55;;
20056;SDS011;10189;49.546;7.906;2023-08-01T11:04:36;2.50;;;1.90;;
20056;SDS011;10189;49.546;7.906;2023-08-01T11:07:01;2.10;;;1.40;;
20056;SDS011;10189;49.546;7.906;2023-08-01T11:09:30;3.50;;;1.90;;
20056;SDS011;10189;49.546;7.906;2023-08-01T11:11:58;2.67;;;1.60;;
20056;SDS011;10189;49.546;7.906;2023-08-01T11:14:26;2.88;;;1.70;;
20056;SDS011;10189;49.546;7.906;2023-08-01T11:16:54;2.53;;;1.85;;
20056;SDS011;10189;49.546;7.906;2023-08-01T11:19:28;3.10;;;1.73;;
20056;SDS011;10189;49.546;7.906;2023-08-01T11:21:55;3.28;;;1.58;;
20056;SDS011;10189;49.546;7.906;2023-08-01T11:24:23;3.35;;;1.95;;
20056;SDS011;10189;49.546;7.906;2023-08-01T11:26:50;2.88;;;1.67;;
20056;SDS011;10189;49.546;7.906;2023-08-01T11:29:19;3.50;;;1.85;;
20056;SDS011;10189;49.546;7.906;2023-08-01T11:31:52;5.00;;;1.80;;
20056;SDS011;10189;49.546;7.906;2023-08-01T11:34:20;3.28;;;2.15;;
20056;SDS011;10189;49.546;7.906;2023-08-01T11:36:47;2.38;;;1.40;;
20056;SDS011;10189;49.546;7.906;2023-08-01T11:39:13;3.60;;;2.00;;
20056;SDS011;10189;49.546;7.906;2023-08-01T11:41:41;2.67;;;1.92;;
20056;SDS011;10189;49.546;7.906;2023-08-01T11:44:08;2.75;;;1.90;;
20056;SDS011;10189;49.546;7.906;2023-08-01T11:46:36;4.15;;;1.52;;
20056;SDS011;10189;49.546;7.906;2023-08-01T11:49:04;4.45;;;1.70;;
20056;SDS011;10189;49.546;7.906;2023-08-01T11:51:38;5.25;;;1.90;;
20056;SDS011;10189;49.546;7.906;2023-08-01T11:54:09;2.88;;;1.63;;
20056;SDS011;10189;49.546;7.906;2023-08-01T11:56:40;1.80;;;1.42;;
20056;SDS011;10189;49.546;7.906;2023-08-01T12:01:41;2.80;;;1.80;;
20056;SDS011;10189;49.546;7.906;2023-08-01T12:04:12;4.32;;;2.05;;
20056;SDS011;10189;49.546;7.906;2023-08-01T12:06:51;4.10;;;1.60;;
20056;SDS011;10189;49.546;7.906;2023-08-01T12:09:18;2.45;;;1.63;;
20056;SDS011;10189;49.546;7.906;2023-08-01T12:11:45;3.20;;;1.77;;
20056;SDS011;10189;49.546;7.906;2023-08-01T12:16:39;3.53;;;1.83;;
20056;SDS011;10189;49.546;7.906;2023-08-01T12:19:10;3.72;;;1.88;;
20056;SDS011;10189;49.546;7.906;2023-08-01T12:21:36;4.65;;;1.83;;
20056;SDS011;10189;49.546;7.906;2023-08-01T12:24:02;2.85;;;1.80;;
20056;SDS011;10189;49.546;7.906;2023-08-01T12:26:29;5.80;;;2.20;;
20056;SDS011;10189;49.546;7.906;2023-08-01T12:28:55;2.50;;;1.58;;
20056;SDS011;10189;49.546;7.906;2023-08-01T12:31:21;4.25;;;1.67;;
20056;SDS011;10189;49.546;7.906;2023-08-01T12:33:48;6.43;;;2.00;;
20056;SDS011;10189;49.546;7.906;2023-08-01T12:36:14;3.70;;;1.95;;
20056;SDS011;10189;49.546;7.906;2023-08-01T12:38:41;2.78;;;1.63;;
20056;SDS011;10189;49.546;7.906;2023-08-01T12:41:07;3.03;;;1.80;;
20056;SDS011;10189;49.546;7.906;2023-08-01T12:43:33;3.00;;;1.60;;
20056;SDS011;10189;49.546;7.906;2023-08-01T12:45:59;2.22;;;1.90;;
20056;SDS011;10189;49.546;7.906;2023-08-01T12:48:25;4.63;;;1.90;;
20056;SDS011;10189;49.546;7.906;2023-08-01T12:50:52;3.85;;;2.20;;
20056;SDS011;10189;49.546;7.906;2023-08-01T12:53:22;3.22;;;1.83;;
20056;SDS011;10189;49.546;7.906;2023-08-01T12:55:51;3.67;;;2.08;;
20056;SDS011;10189;49.546;7.906;2023-08-01T12:58:18;3.25;;;2.10;;
20056;SDS011;10189;49.546;7.906;2023-08-01T13:00:44;3.50;;;2.00;;
20056;SDS011;10189;49.546;7.906;2023-08-01T13:03:10;4.20;;;2.15;;
20056;SDS011;10189;49.546;7.906;2023-08-01T13:05:38;2.88;;;1.98;;
20056;SDS011;10189;49.546;7.906;2023-08-01T13:08:06;3.95;;;2.40;;
20056;SDS011;10189;49.546;7.906;2023-08-01T13:10:36;2.05;;;1.60;;
20056;SDS011;10189;49.546;7.906;2023-08-01T13:13:03;4.22;;;1.90;;
20056;SDS011;10189;49.546;7.906;2023-08-01T13:15:30;2.55;;;1.80;;
20056;SDS011;10189;49.546;7.906;2023-08-01T13:17:56;3.33;;;2.13;;
20056;SDS011;10189;49.546;7.906;2023-08-01T13:20:22;2.78;;;1.70;;
20056;SDS011;10189;49.546;7.906;2023-08-01T13:22:49;2.63;;;2.00;;
20056;SDS011;10189;49.546;7.906;2023-08-01T13:25:16;3.40;;;2.13;;
20056;SDS011;10189;49.546;7.906;2023-08-01T13:27:43;4.97;;;2.33;;
20056;SDS011;10189;49.546;7.906;2023-08-01T13:30:09;2.75;;;1.98;;
20056;SDS011;10189;49.546;7.906;2023-08-01T13:32:39;7.70;;;2.10;;
20056;SDS011;10189;49.546;7.906;2023-08-01T13:35:06;4.05;;;1.90;;
20056;SDS011;10189;49.546;7.906;2023-08-01T13:37:32;3.63;;;1.92;;
20056;SDS011;10189;49.546;7.906;2023-08-01T13:39:58;3.35;;;1.80;;
20056;SDS011;10189;49.546;7.906;2023-08-01T13:42:24;4.60;;;2.00;;
20056;SDS011;10189;49.546;7.906;2023-08-01T13:44:50;3.30;;;1.90;;
20056;SDS011;10189;49.546;7.906;2023-08-01T13:47:15;3.25;;;1.98;;
20056;SDS011;10189;49.546;7.906;2023-08-01T13:49:41;3.92;;;1.77;;
20056;SDS011;10189;49.546;7.906;2023-08-01T13:52:07;2.97;;;1.92;;
20056;SDS011;10189;49.546;7.906;2023-08-01T13:54:33;4.18;;;1.73;;
20056;SDS011;10189;49.546;7.906;2023-08-01T13:56:59;2.53;;;1.83;;
20056;SDS011;10189;49.546;7.906;2023-08-01T13:59:25;3.35;;;1.73;;
20056;SDS011;10189;49.546;7.906;2023-08-01T14:01:52;2.67;;;1.50;;
20056;SDS011;10189;49.546;7.906;2023-08-01T14:04:18;3.47;;;1.60;;
20056;SDS011;10189;49.546;7.906;2023-08-01T14:06:46;2.17;;;1.88;;
20056;SDS011;10189;49.546;7.906;2023-08-01T14:09:11;3.42;;;1.80;;
20056;SDS011;10189;49.546;7.906;2023-08-01T14:11:39;3.42;;;1.90;;
20056;SDS011;10189;49.546;7.906;2023-08-01T14:14:05;3.65;;;1.73;;
20056;SDS011;10189;49.546;7.906;2023-08-01T14:16:31;4.05;;;1.88;;
20056;SDS011;10189;49.546;7.906;2023-08-01T14:19:00;3.33;;;1.88;;
20056;SDS011;10189;49.546;7.906;2023-08-01T14:21:26;5.22;;;1.95;;
20056;SDS011;10189;49.546;7.906;2023-08-01T14:23:52;3.13;;;1.58;;
20056;SDS011;10189;49.546;7.906;2023-08-01T14:26:18;3.28;;;1.60;;
20056;SDS011;10189;49.546;7.906;2023-08-01T14:28:44;3.70;;;1.67;;
20056;SDS011;10189;49.546;7.906;2023-08-01T14:31:11;2.78;;;1.45;;
20056;SDS011;10189;49.546;7.906;2023-08-01T14:33:37;3.38;;;1.58;;
20056;SDS011;10189;49.546;7.906;2023-08-01T14:36:06;3.05;;;1.70;;
20056;SDS011;10189;49.546;7.906;2023-08-01T14:38:34;2.88;;;1.65;;
20056;SDS011;10189;49.546;7.906;2023-08-01T14:41:01;3.35;;;1.77;;
20056;SDS011;10189;49.546;7.906;2023-08-01T14:43:27;6.30;;;1.77;;
20056;SDS011;10189;49.546;7.906;2023-08-01T14:45:53;4.45;;;1.60;;
20056;SDS011;10189;49.546;7.906;2023-08-01T14:48:19;4.88;;;1.45;;
20056;SDS011;10189;49.546;7.906;2023-08-01T14:50:46;3.72;;;1.58;;
20056;SDS011;10189;49.546;7.906;2023-08-01T14:53:12;2.53;;;1.42;;